sensor_id;sensor_type;location;lat;lon;timestamp;pressure;altitude;pressure_sealevel;temperature;humidity
33191;BME280;19554;42.652;23.364;2023-04-28T00:01:50;94828.41;;;9.21;41.90
33191;BME280;19554;42.652;23.364;2023-04-28T00:04:16;94836.13;;;9.12;41.87
33191;BME280;19554;42.652;23.364;2023-04-28T00:06:41;94844.66;;;9.09;41.96
33191;BME280;19554;42.652;23.364;2023-04-28T00:09:07;94841.00;;;8.95;41.83
33191;BME280;19554;42.652;23.364;2023-04-28T00:11:36;94850.03;;;9.04;42.24
33191;BME280;19554;42.652;23.364;2023-04-28T00:14:03;94851.06;;;9.08;42.14
33191;BME280;19554;42.652;23.364;2023-04-28T00:16:28;94836.72;;;9.04;41.67
33191;BME280;19554;42.652;23.364;2023-04-28T00:18:53;94849.47;;;9.07;41.97
33191;BME280;19554;42.652;23.364;2023-04-28T00:21:19;94852.44;;;9.00;41.91
33191;BME280;19554;42.652;23.364;2023-04-28T00:23:44;94760.25;;;8.40;42.31
33191;BME280;19554;42.652;23.364;2023-04-28T00:26:09;94755.47;;;8.31;42.40
33191;BME280;19554;42.652;23.364;2023-04-28T00:28:36;94845.03;;;8.82;42.17
33191;BME280;19554;42.652;23.364;2023-04-28T00:31:09;94852.72;;;8.89;42.32
33191;BME280;19554;42.652;23.364;2023-04-28T00:33:34;94854.84;;;8.92;42.50
33191;BME280;19554;42.652;23.364;2023-04-28T00:36:00;94764.75;;;8.49;42.15
33191;BME280;19554;42.652;23.364;2023-04-28T00:38:25;94858.22;;;9.18;42.06
33191;BME280;19554;42.652;23.364;2023-04-28T00:40:51;94847.91;;;9.06;41.84
33191;BME280;19554;42.652;23.364;2023-04-28T00:43:16;94862.28;;;8.95;42.18
33191;BME280;19554;42.652;23.364;2023-04-28T00:45:42;94863.06;;;8.95;42.34
33191;BME280;19554;42.652;23.364;2023-04-28T00:48:07;94853.53;;;8.89;42.33
33191;BME280;19554;42.652;23.364;2023-04-28T00:50:33;94849.31;;;8.73;42.41
33191;BME280;19554;42.652;23.364;2023-04-28T00:52:59;94785.53;;;8.22;42.55
33191;BME280;19554;42.652;23.364;2023-04-28T00:55:25;94864.75;;;8.71;42.64
33191;BME280;19554;42.652;23.364;2023-04-28T00:57:54;94837.38;;;8.55;42.71
33191;BME280;19554;42.652;23.364;2023-04-28T01:00:20;94858.91;;;8.69;42.85
33191;BME280;19554;42.652;23.364;2023-04-28T01:02:45;94866.09;;;8.63;42.95
33191;BME280;19554;42.652;23.364;2023-04-28T01:05:11;94826.75;;;8.24;43.23
33191;BME280;19554;42.652;23.364;2023-04-28T01:07:38;94870.91;;;8.46;43.25
33191;BME280;19554;42.652;23.364;2023-04-28T01:10:04;94870.88;;;8.41;43.50
33191;BME280;19554;42.652;23.364;2023-04-28T01:12:29;94861.56;;;8.33;43.64
33191;BME280;19554;42.652;23.364;2023-04-28T01:14:55;94859.19;;;8.31;43.55
33191;BME280;19554;42.652;23.364;2023-04-28T01:17:20;94864.53;;;8.42;43.61
33191;BME280;19554;42.652;23.364;2023-04-28T01:19:46;94869.84;;;8.42;43.24
33191;BME280;19554;42.652;23.364;2023-04-28T01:22:11;94875.13;;;8.31;43.48
33191;BME280;19554;42.652;23.364;2023-04-28T01:24:39;94845.34;;;7.99;43.73
33191;BME280;19554;42.652;23.364;2023-04-28T01:27:04;94870.88;;;8.05;44.01
33191;BME280;19554;42.652;23.364;2023-04-28T01:29:30;94875.38;;;8.04;44.13
33191;BME280;19554;42.652;23.364;2023-04-28T01:31:55;94872.97;;;8.13;43.86
33191;BME280;19554;42.652;23.364;2023-04-28T01:34:21;94877.25;;;8.09;43.90
33191;BME280;19554;42.652;23.364;2023-04-28T01:36:46;94875.66;;;8.18;43.70
33191;BME280;19554;42.652;23.364;2023-04-28T01:39:11;94868.19;;;8.10;43.45
33191;BME280;19554;42.652;23.364;2023-04-28T01:41:37;94868.19;;;8.00;44.00
33191;BME280;19554;42.652;23.364;2023-04-28T01:44:03;94872.44;;;7.96;43.93
33191;BME280;19554;42.652;23.364;2023-04-28T01:46:30;94874.59;;;8.04;43.91
33191;BME280;19554;42.652;23.364;2023-04-28T01:48:55;94875.91;;;8.01;43.72
33191;BME280;19554;42.652;23.364;2023-04-28T01:51:21;94877.22;;;7.99;43.75
33191;BME280;19554;42.652;23.364;2023-04-28T01:53:46;94874.84;;;7.87;44.07
33191;BME280;19554;42.652;23.364;2023-04-28T01:56:11;94878.53;;;7.96;43.59
33191;BME280;19554;42.652;23.364;2023-04-28T01:58:37;94871.13;;;7.93;43.58
33191;BME280;19554;42.652;23.364;2023-04-28T02:01:02;94854.88;;;7.74;43.94
33191;BME280;19554;42.652;23.364;2023-04-28T02:03:27;94878.25;;;7.82;43.91
33191;BME280;19554;42.652;23.364;2023-04-28T02:05:53;94886.78;;;7.95;43.89
33191;BME280;19554;42.652;23.364;2023-04-28T02:08:19;94875.13;;;8.01;43.87
33191;BME280;19554;42.652;23.364;2023-04-28T02:10:44;94871.41;;;8.12;43.51
33191;BME280;19554;42.652;23.364;2023-04-28T02:13:10;94881.50;;;8.15;42.78
33191;BME280;19554;42.652;23.364;2023-04-28T02:15:40;94883.63;;;8.13;43.01
33191;BME280;19554;42.652;23.364;2023-04-28T02:18:06;94888.69;;;8.04;43.35
33191;BME280;19554;42.652;23.364;2023-04-28T02:20:31;94887.34;;;7.97;43.68
33191;BME280;19554;42.652;23.364;2023-04-28T02:22:57;94850.34;;;7.65;43.92
33191;BME280;19554;42.652;23.364;2023-04-28T02:25:22;94896.34;;;7.80;44.07
33191;BME280;19554;42.652;23.364;2023-04-28T02:27:47;94895.56;;;7.90;44.00
33191;BME280;19554;42.652;23.364;2023-04-28T02:30:13;94885.47;;;7.97;43.60
33191;BME280;19554;42.652;23.364;2023-04-28T02:32:38;94876.16;;;7.84;43.68
33191;BME280;19554;42.652;23.364;2023-04-28T02:35:04;94895.81;;;7.83;44.28
33191;BME280;19554;42.652;23.364;2023-04-28T02:37:29;94856.91;;;7.42;44.40
33191;BME280;19554;42.652;23.364;2023-04-28T02:39:55;94893.13;;;7.68;44.64
33191;BME280;19554;42.652;23.364;2023-04-28T02:42:21;94830.34;;;7.42;44.36
33191;BME280;19554;42.652;23.364;2023-04-28T02:44:46;94894.75;;;7.79;44.26
33191;BME280;19554;42.652;23.364;2023-04-28T02:47:11;94902.72;;;7.90;44.29
33191;BME280;19554;42.652;23.364;2023-04-28T02:49:37;94901.94;;;7.94;44.04
33191;BME280;19554;42.652;23.364;2023-04-28T02:52:02;94907.53;;;7.98;44.04
33191;BME280;19554;42.652;23.364;2023-04-28T02:54:27;94874.28;;;7.70;43.92
33191;BME280;19554;42.652;23.364;2023-04-28T02:56:54;94904.84;;;7.88;44.21
33191;BME280;19554;42.652;23.364;2023-04-28T02:59:20;94920.25;;;7.86;44.16
33191;BME280;19554;42.652;23.364;2023-04-28T03:01:45;94909.09;;;7.89;44.26
33191;BME280;19554;42.652;23.364;2023-04-28T03:04:11;94910.16;;;7.93;44.21
33191;BME280;19554;42.652;23.364;2023-04-28T03:06:37;94894.44;;;7.76;44.18
33191;BME280;19554;42.652;23.364;2023-04-28T03:09:02;94909.09;;;7.78;44.49
33191;BME280;19554;42.652;23.364;2023-04-28T03:11:28;94877.34;;;7.41;44.55
33191;BME280;19554;42.652;23.364;2023-04-28T03:13:53;94885.91;;;7.58;44.29
33191;BME280;19554;42.652;23.364;2023-04-28T03:16:18;94813.81;;;7.14;44.49
33191;BME280;19554;42.652;23.364;2023-04-28T03:18:44;94901.66;;;7.80;44.28
33191;BME280;19554;42.652;23.364;2023-04-28T03:21:09;94896.38;;;7.91;44.17
33191;BME280;19554;42.652;23.364;2023-04-28T03:23:34;94922.97;;;8.01;43.87
33191;BME280;19554;42.652;23.364;2023-04-28T03:26:00;94928.81;;;8.08;43.95
33191;BME280;19554;42.652;23.364;2023-04-28T03:28:26;94925.84;;;7.89;43.91
33191;BME280;19554;42.652;23.364;2023-04-28T03:30:51;94936.22;;;7.96;43.91
33191;BME280;19554;42.652;23.364;2023-04-28T03:33:16;94922.38;;;7.73;44.19
33191;BME280;19554;42.652;23.364;2023-04-28T03:35:42;94950.03;;;7.88;44.46
33191;BME280;19554;42.652;23.364;2023-04-28T03:38:07;94921.84;;;7.76;44.08
33191;BME280;19554;42.652;23.364;2023-04-28T03:40:32;94947.91;;;7.90;44.32
33191;BME280;19554;42.652;23.364;2023-04-28T03:42:58;94957.75;;;7.99;43.80
33191;BME280;19554;42.652;23.364;2023-04-28T03:45:23;94907.19;;;7.64;43.67
33191;BME280;19554;42.652;23.364;2023-04-28T03:47:49;94951.94;;;8.07;43.27
33191;BME280;19554;42.652;23.364;2023-04-28T03:50:14;94959.66;;;8.09;43.38
33191;BME280;19554;42.652;23.364;2023-04-28T03:52:39;94959.16;;;8.32;42.90
33191;BME280;19554;42.652;23.364;2023-04-28T03:55:05;94967.72;;;8.40;42.56
33191;BME280;19554;42.652;23.364;2023-04-28T03:57:31;94966.13;;;8.59;41.90
33191;BME280;19554;42.652;23.364;2023-04-28T03:59:56;94973.06;;;8.86;41.39
33191;BME280;19554;42.652;23.364;2023-04-28T04:02:21;94973.03;;;8.91;40.81
33191;BME280;19554;42.652;23.364;2023-04-28T04:04:47;94968.22;;;9.08;40.68
33191;BME280;19554;42.652;23.364;2023-04-28T04:07:12;94988.41;;;9.30;40.19
33191;BME280;19554;42.652;23.364;2023-04-28T04:09:38;94986.84;;;9.34;39.79
33191;BME280;19554;42.652;23.364;2023-04-28T04:12:03;94994.50;;;9.56;39.45
33191;BME280;19554;42.652;23.364;2023-04-28T04:14:29;94988.56;;;9.79;39.00
33191;BME280;19554;42.652;23.364;2023-04-28T04:16:54;94989.75;;;10.07;39.10
33191;BME280;19554;42.652;23.364;2023-04-28T04:19:20;94991.88;;;10.15;38.18
33191;BME280;19554;42.652;23.364;2023-04-28T04:21:48;94984.88;;;10.25;38.03
33191;BME280;19554;42.652;23.364;2023-04-28T04:24:13;94992.34;;;10.23;38.04
33191;BME280;19554;42.652;23.364;2023-04-28T04:26:38;94869.50;;;9.64;37.19
33191;BME280;19554;42.652;23.364;2023-04-28T04:29:04;94989.94;;;10.71;37.70
33191;BME280;19554;42.652;23.364;2023-04-28T04:31:30;94987.50;;;10.74;36.82
33191;BME280;19554;42.652;23.364;2023-04-28T04:33:55;95002.75;;;10.74;36.59
33191;BME280;19554;42.652;23.364;2023-04-28T04:36:21;94988.31;;;10.75;36.37
33191;BME280;19554;42.652;23.364;2023-04-28T04:38:46;95000.09;;;10.68;36.61
33191;BME280;19554;42.652;23.364;2023-04-28T04:41:12;94998.19;;;10.74;37.39
33191;BME280;19554;42.652;23.364;2023-04-28T04:43:37;94998.44;;;10.78;36.90
33191;BME280;19554;42.652;23.364;2023-04-28T04:46:03;95003.13;;;10.91;36.22
33191;BME280;19554;42.652;23.364;2023-04-28T04:48:28;95002.22;;;11.06;35.94
33191;BME280;19554;42.652;23.364;2023-04-28T04:50:54;95009.44;;;11.05;35.85
33191;BME280;19554;42.652;23.364;2023-04-28T04:53:19;94975.91;;;10.89;36.27
33191;BME280;19554;42.652;23.364;2023-04-28T04:55:45;95012.13;;;11.58;35.66
33191;BME280;19554;42.652;23.364;2023-04-28T04:58:10;95015.09;;;11.57;34.78
33191;BME280;19554;42.652;23.364;2023-04-28T05:00:36;95022.91;;;11.48;35.39
33191;BME280;19554;42.652;23.364;2023-04-28T05:03:02;95033.03;;;11.51;34.95
33191;BME280;19554;42.652;23.364;2023-04-28T05:05:28;94937.72;;;10.88;35.35
33191;BME280;19554;42.652;23.364;2023-04-28T05:07:53;95024.84;;;11.43;35.17
33191;BME280;19554;42.652;23.364;2023-04-28T05:10:19;94969.31;;;11.10;35.27
33191;BME280;19554;42.652;23.364;2023-04-28T05:12:44;95028.16;;;11.58;34.97
33191;BME280;19554;42.652;23.364;2023-04-28T05:15:10;95032.38;;;11.65;34.68
33191;BME280;19554;42.652;23.364;2023-04-28T05:17:35;95028.16;;;11.58;35.51
33191;BME280;19554;42.652;23.364;2023-04-28T05:20:01;95011.97;;;11.74;34.86
33191;BME280;19554;42.652;23.364;2023-04-28T05:22:26;95031.06;;;11.91;34.73
33191;BME280;19554;42.652;23.364;2023-04-28T05:24:51;95028.78;;;12.03;34.45
33191;BME280;19554;42.652;23.364;2023-04-28T05:27:18;95030.13;;;12.25;35.10
33191;BME280;19554;42.652;23.364;2023-04-28T05:29:43;95032.59;;;12.40;34.09
33191;BME280;19554;42.652;23.364;2023-04-28T05:32:09;94973.09;;;12.05;33.97
33191;BME280;19554;42.652;23.364;2023-04-28T05:34:34;95031.00;;;12.39;34.04
33191;BME280;19554;42.652;23.364;2023-04-28T05:37:00;95011.38;;;12.25;34.48
33191;BME280;19554;42.652;23.364;2023-04-28T05:39:25;95028.47;;;12.29;34.32
33191;BME280;19554;42.652;23.364;2023-04-28T05:41:51;95017.66;;;12.34;34.56
33191;BME280;19554;42.652;23.364;2023-04-28T05:44:16;95005.50;;;12.23;34.95
33191;BME280;19554;42.652;23.364;2023-04-28T05:46:41;95028.69;;;12.70;34.80
33191;BME280;19554;42.652;23.364;2023-04-28T05:49:08;95001.63;;;12.72;34.81
33191;BME280;19554;42.652;23.364;2023-04-28T05:51:33;95026.09;;;12.84;34.21
33191;BME280;19554;42.652;23.364;2023-04-28T05:53:59;95011.75;;;12.75;33.69
33191;BME280;19554;42.652;23.364;2023-04-28T05:56:24;94945.91;;;12.36;33.70
33191;BME280;19554;42.652;23.364;2023-04-28T05:58:50;95029.53;;;13.03;33.45
33191;BME280;19554;42.652;23.364;2023-04-28T06:01:15;95028.66;;;13.27;34.00
33191;BME280;19554;42.652;23.364;2023-04-28T06:03:41;95034.44;;;13.34;33.34
33191;BME280;19554;42.652;23.364;2023-04-28T06:06:07;95021.13;;;13.43;33.21
33191;BME280;19554;42.652;23.364;2023-04-28T06:08:33;94999.50;;;13.67;32.24
33191;BME280;19554;42.652;23.364;2023-04-28T06:10:59;95019.22;;;14.04;31.96
33191;BME280;19554;42.652;23.364;2023-04-28T06:13:24;95030.34;;;13.97;31.64
33191;BME280;19554;42.652;23.364;2023-04-28T06:15:50;94993.94;;;13.49;32.05
33191;BME280;19554;42.652;23.364;2023-04-28T06:18:15;95010.59;;;13.33;31.89
33191;BME280;19554;42.652;23.364;2023-04-28T06:20:41;95032.66;;;13.43;31.95
33191;BME280;19554;42.652;23.364;2023-04-28T06:23:07;95027.22;;;13.48;32.01
33191;BME280;19554;42.652;23.364;2023-04-28T06:25:34;95021.72;;;13.07;32.20
33191;BME280;19554;42.652;23.364;2023-04-28T06:28:00;94931.31;;;12.09;32.59
33191;BME280;19554;42.652;23.364;2023-04-28T06:30:25;95035.38;;;12.73;33.01
33191;BME280;19554;42.652;23.364;2023-04-28T06:32:51;95026.59;;;12.67;33.28
33191;BME280;19554;42.652;23.364;2023-04-28T06:35:17;94976.50;;;12.30;33.17
33191;BME280;19554;42.652;23.364;2023-04-28T06:37:42;95028.41;;;12.53;33.34
33191;BME280;19554;42.652;23.364;2023-04-28T06:40:09;95024.78;;;12.63;32.67
33191;BME280;19554;42.652;23.364;2023-04-28T06:42:34;95028.72;;;12.51;33.62
33191;BME280;19554;42.652;23.364;2023-04-28T06:45:00;95029.84;;;12.83;33.18
33191;BME280;19554;42.652;23.364;2023-04-28T06:47:25;95024.44;;;13.21;32.19
33191;BME280;19554;42.652;23.364;2023-04-28T06:49:51;95010.78;;;13.03;31.88
33191;BME280;19554;42.652;23.364;2023-04-28T06:52:16;95022.84;;;13.20;32.12
33191;BME280;19554;42.652;23.364;2023-04-28T06:54:42;94993.81;;;13.27;31.46
33191;BME280;19554;42.652;23.364;2023-04-28T06:57:07;95014.88;;;13.15;31.62
33191;BME280;19554;42.652;23.364;2023-04-28T06:59:33;95016.56;;;13.11;32.19
33191;BME280;19554;42.652;23.364;2023-04-28T07:01:59;95012.47;;;13.32;31.86
33191;BME280;19554;42.652;23.364;2023-04-28T07:04:25;95019.34;;;13.38;31.77
33191;BME280;19554;42.652;23.364;2023-04-28T07:06:51;95015.13;;;13.51;31.92
33191;BME280;19554;42.652;23.364;2023-04-28T07:09:16;95022.78;;;13.85;31.28
33191;BME280;19554;42.652;23.364;2023-04-28T07:11:43;95031.72;;;14.08;31.10
33191;BME280;19554;42.652;23.364;2023-04-28T07:14:08;94936.31;;;13.33;29.95
33191;BME280;19554;42.652;23.364;2023-04-28T07:16:34;95017.81;;;13.92;30.96
33191;BME280;19554;42.652;23.364;2023-04-28T07:19:00;95014.22;;;14.25;30.27
33191;BME280;19554;42.652;23.364;2023-04-28T07:21:25;95014.16;;;14.66;30.61
33191;BME280;19554;42.652;23.364;2023-04-28T07:23:50;95015.47;;;14.68;30.33
33191;BME280;19554;42.652;23.364;2023-04-28T07:26:16;95006.59;;;14.68;29.69
33191;BME280;19554;42.652;23.364;2023-04-28T07:28:42;94935.13;;;13.94;29.92
33191;BME280;19554;42.652;23.364;2023-04-28T07:31:08;95004.66;;;14.32;30.02
33191;BME280;19554;42.652;23.364;2023-04-28T07:33:33;95004.25;;;14.53;29.95
33191;BME280;19554;42.652;23.364;2023-04-28T07:35:59;95005.50;;;14.69;30.49
33191;BME280;19554;42.652;23.364;2023-04-28T07:38:24;94999.91;;;15.02;30.08
33191;BME280;19554;42.652;23.364;2023-04-28T07:40:50;95001.13;;;15.18;29.20
33191;BME280;19554;42.652;23.364;2023-04-28T07:43:15;95006.50;;;14.96;28.58
33191;BME280;19554;42.652;23.364;2023-04-28T07:45:40;95009.06;;;15.01;28.76
33191;BME280;19554;42.652;23.364;2023-04-28T07:48:06;94993.91;;;14.32;29.62
33191;BME280;19554;42.652;23.364;2023-04-28T07:50:32;95015.41;;;14.60;29.63
33191;BME280;19554;42.652;23.364;2023-04-28T07:52:58;95008.22;;;15.14;29.86
33191;BME280;19554;42.652;23.364;2023-04-28T07:55:24;95016.97;;;15.51;29.37
33191;BME280;19554;42.652;23.364;2023-04-28T07:57:49;95001.47;;;15.48;28.67
33191;BME280;19554;42.652;23.364;2023-04-28T08:00:15;95001.47;;;15.48;28.33
33191;BME280;19554;42.652;23.364;2023-04-28T08:02:41;94986.44;;;15.24;28.00
33191;BME280;19554;42.652;23.364;2023-04-28T08:05:07;95001.97;;;15.27;28.85
33191;BME280;19554;42.652;23.364;2023-04-28T08:07:33;95007.00;;;15.51;27.75
33191;BME280;19554;42.652;23.364;2023-04-28T08:09:59;95005.97;;;15.61;27.78
33191;BME280;19554;42.652;23.364;2023-04-28T08:12:25;94939.13;;;15.46;28.58
33191;BME280;19554;42.652;23.364;2023-04-28T08:14:51;94988.56;;;15.98;27.44
33191;BME280;19554;42.652;23.364;2023-04-28T08:17:16;94994.03;;;16.24;27.80
33191;BME280;19554;42.652;23.364;2023-04-28T08:19:41;94999.47;;;16.50;27.18
33191;BME280;19554;42.652;23.364;2023-04-28T08:22:10;94986.75;;;16.33;26.54
33191;BME280;19554;42.652;23.364;2023-04-28T08:24:35;95003.88;;;16.29;27.12
33191;BME280;19554;42.652;23.364;2023-04-28T08:27:01;95002.56;;;16.18;26.89
33191;BME280;19554;42.652;23.364;2023-04-28T08:29:30;94965.00;;;16.04;26.96
33191;BME280;19554;42.652;23.364;2023-04-28T08:31:56;94988.75;;;16.02;26.93
33191;BME280;19554;42.652;23.364;2023-04-28T08:34:22;94911.69;;;15.66;27.45
33191;BME280;19554;42.652;23.364;2023-04-28T08:36:48;94996.28;;;16.40;26.93
33191;BME280;19554;42.652;23.364;2023-04-28T08:39:13;94986.31;;;16.49;26.32
33191;BME280;19554;42.652;23.364;2023-04-28T08:41:39;94981.53;;;16.28;27.00
33191;BME280;19554;42.652;23.364;2023-04-28T08:44:08;94977.72;;;16.29;26.60
33191;BME280;19554;42.652;23.364;2023-04-28T08:46:35;94978.91;;;16.06;26.17
33191;BME280;19554;42.652;23.364;2023-04-28T08:49:03;94987.78;;;15.98;26.99
33191;BME280;19554;42.652;23.364;2023-04-28T08:51:34;94984.44;;;15.92;26.80
33191;BME280;19554;42.652;23.364;2023-04-28T08:54:03;94982.06;;;15.99;27.20
33191;BME280;19554;42.652;23.364;2023-04-28T08:56:32;94977.34;;;16.05;26.85
33191;BME280;19554;42.652;23.364;2023-04-28T08:59:02;94976.94;;;16.29;26.99
33191;BME280;19554;42.652;23.364;2023-04-28T09:01:29;94924.59;;;16.13;26.57
33191;BME280;19554;42.652;23.364;2023-04-28T09:03:55;94969.16;;;16.27;26.66
33191;BME280;19554;42.652;23.364;2023-04-28T09:06:21;94974.59;;;16.45;26.21
33191;BME280;19554;42.652;23.364;2023-04-28T09:08:47;94980.31;;;16.69;26.53
33191;BME280;19554;42.652;23.364;2023-04-28T09:11:12;94971.41;;;16.60;25.99
33191;BME280;19554;42.652;23.364;2023-04-28T09:13:39;94957.44;;;16.58;25.97
33191;BME280;19554;42.652;23.364;2023-04-28T09:16:05;94906.03;;;15.76;26.24
33191;BME280;19554;42.652;23.364;2023-04-28T09:18:31;94963.63;;;15.75;26.85
33191;BME280;19554;42.652;23.364;2023-04-28T09:21:08;94962.66;;;15.71;27.34
33191;BME280;19554;42.652;23.364;2023-04-28T09:23:35;94952.06;;;15.75;27.42
33191;BME280;19554;42.652;23.364;2023-04-28T09:26:10;94949.88;;;15.46;27.15
33191;BME280;19554;42.652;23.364;2023-04-28T09:28:35;94946.88;;;15.47;28.23
33191;BME280;19554;42.652;23.364;2023-04-28T09:31:01;94949.88;;;15.46;27.50
33191;BME280;19554;42.652;23.364;2023-04-28T09:33:27;94950.94;;;15.67;27.96
33191;BME280;19554;42.652;23.364;2023-04-28T09:35:53;94956.06;;;15.55;27.25
33191;BME280;19554;42.652;23.364;2023-04-28T09:38:19;94938.50;;;15.49;27.22
33191;BME280;19554;42.652;23.364;2023-04-28T09:40:59;94936.88;;;15.48;27.90
33191;BME280;19554;42.652;23.364;2023-04-28T09:43:32;94845.13;;;15.09;27.80
33191;BME280;19554;42.652;23.364;2023-04-28T09:45:59;94926.59;;;15.81;27.01
33191;BME280;19554;42.652;23.364;2023-04-28T09:48:32;94927.59;;;15.94;26.75
33191;BME280;19554;42.652;23.364;2023-04-28T09:50:58;94924.75;;;15.99;27.08
33191;BME280;19554;42.652;23.364;2023-04-28T09:53:25;94926.16;;;15.96;26.77
33191;BME280;19554;42.652;23.364;2023-04-28T09:55:52;94922.63;;;15.38;26.37
33191;BME280;19554;42.652;23.364;2023-04-28T09:58:21;94920.59;;;15.13;27.92
33191;BME280;19554;42.652;23.364;2023-04-28T10:00:58;94830.88;;;14.69;27.27
33191;BME280;19554;42.652;23.364;2023-04-28T10:03:25;94915.13;;;14.96;27.05
33191;BME280;19554;42.652;23.364;2023-04-28T10:05:52;94916.69;;;14.97;27.64
33191;BME280;19554;42.652;23.364;2023-04-28T10:08:21;94899.31;;;15.25;27.96
33191;BME280;19554;42.652;23.364;2023-04-28T10:10:51;94892.22;;;15.29;27.62
33191;BME280;19554;42.652;23.364;2023-04-28T10:13:20;94898.06;;;15.71;28.04
33191;BME280;19554;42.652;23.364;2023-04-28T10:15:46;94893.88;;;16.05;27.14
33191;BME280;19554;42.652;23.364;2023-04-28T10:18:12;94880.41;;;16.05;26.65
33191;BME280;19554;42.652;23.364;2023-04-28T10:20:41;94881.38;;;16.09;27.08
33191;BME280;19554;42.652;23.364;2023-04-28T10:26:08;94849.81;;;15.66;26.28
33191;BME280;19554;42.652;23.364;2023-04-28T10:28:35;94850.53;;;15.58;26.74
33191;BME280;19554;42.652;23.364;2023-04-28T10:31:20;94897.16;;;15.84;27.52
33191;BME280;19554;42.652;23.364;2023-04-28T10:33:46;94895.75;;;15.96;27.75
33191;BME280;19554;42.652;23.364;2023-04-28T10:36:50;94879.94;;;16.03;27.14
33191;BME280;19554;42.652;23.364;2023-04-28T10:39:20;94881.03;;;16.02;27.03
33191;BME280;19554;42.652;23.364;2023-04-28T10:41:46;94870.28;;;16.02;27.09
33191;BME280;19554;42.652;23.364;2023-04-28T10:47:05;94868.97;;;15.73;27.11
33191;BME280;19554;42.652;23.364;2023-04-28T10:55:33;94860.75;;;15.96;26.53
33191;BME280;19554;42.652;23.364;2023-04-28T11:00:45;94772.34;;;15.54;26.25
33191;BME280;19554;42.652;23.364;2023-04-28T11:06:34;94854.22;;;15.79;26.41
33191;BME280;19554;42.652;23.364;2023-04-28T11:16:56;94847.88;;;14.87;26.99
33191;BME280;19554;42.652;23.364;2023-04-28T11:19:27;94849.72;;;15.09;26.87
33191;BME280;19554;42.652;23.364;2023-04-28T11:21:55;94846.47;;;14.89;26.69
33191;BME280;19554;42.652;23.364;2023-04-28T11:24:22;94762.56;;;14.39;26.61
33191;BME280;19554;42.652;23.364;2023-04-28T11:26:50;94834.72;;;15.08;26.67
33191;BME280;19554;42.652;23.364;2023-04-28T11:29:15;94775.00;;;14.88;26.74
33191;BME280;19554;42.652;23.364;2023-04-28T11:31:48;94839.25;;;15.47;26.74
33191;BME280;19554;42.652;23.364;2023-04-28T11:34:18;94802.09;;;15.58;26.17
33191;BME280;19554;42.652;23.364;2023-04-28T11:36:44;94818.16;;;15.80;26.46
33191;BME280;19554;42.652;23.364;2023-04-28T11:39:11;94817.53;;;16.01;26.08
33191;BME280;19554;42.652;23.364;2023-04-28T11:41:41;94820.47;;;15.56;24.81
33191;BME280;19554;42.652;23.364;2023-04-28T11:44:15;94821.56;;;15.06;25.36
33191;BME280;19554;42.652;23.364;2023-04-28T11:49:10;94744.38;;;14.58;26.29
33191;BME280;19554;42.652;23.364;2023-04-28T11:51:37;94812.31;;;15.30;25.51
33191;BME280;19554;42.652;23.364;2023-04-28T11:54:06;94750.84;;;14.97;25.31
33191;BME280;19554;42.652;23.364;2023-04-28T11:56:39;94812.69;;;15.54;25.29
33191;BME280;19554;42.652;23.364;2023-04-28T11:59:08;94808.97;;;15.24;24.33
33191;BME280;19554;42.652;23.364;2023-04-28T12:04:09;94806.22;;;14.67;25.18
33191;BME280;19554;42.652;23.364;2023-04-28T12:06:34;94794.22;;;14.73;25.09
33191;BME280;19554;42.652;23.364;2023-04-28T12:09:00;94803.34;;;14.95;24.92
33191;BME280;19554;42.652;23.364;2023-04-28T12:11:30;94802.16;;;15.18;25.55
33191;BME280;19554;42.652;23.364;2023-04-28T12:14:02;94793.53;;;15.38;25.23
33191;BME280;19554;42.652;23.364;2023-04-28T12:16:41;94784.53;;;15.60;25.58
33191;BME280;19554;42.652;23.364;2023-04-28T12:19:11;94778.56;;;15.72;26.02
33191;BME280;19554;42.652;23.364;2023-04-28T12:21:37;94791.88;;;15.95;25.70
33191;BME280;19554;42.652;23.364;2023-04-28T12:24:18;94782.38;;;15.80;24.76
33191;BME280;19554;42.652;23.364;2023-04-28T12:26:44;94736.91;;;15.61;25.33
33191;BME280;19554;42.652;23.364;2023-04-28T12:29:09;94674.53;;;15.41;24.89
33191;BME280;19554;42.652;23.364;2023-04-28T12:31:54;94777.63;;;15.94;24.97
33191;BME280;19554;42.652;23.364;2023-04-28T12:34:21;94769.69;;;16.06;25.21
33191;BME280;19554;42.652;23.364;2023-04-28T12:36:46;94767.16;;;16.19;24.54
33191;BME280;19554;42.652;23.364;2023-04-28T12:39:13;94767.94;;;16.19;24.41
33191;BME280;19554;42.652;23.364;2023-04-28T12:41:40;94752.72;;;16.23;25.32
33191;BME280;19554;42.652;23.364;2023-04-28T12:44:06;94762.56;;;16.02;25.89
33191;BME280;19554;42.652;23.364;2023-04-28T12:46:31;94762.56;;;16.02;26.29
33191;BME280;19554;42.652;23.364;2023-04-28T12:48:57;94751.19;;;16.05;26.36
33191;BME280;19554;42.652;23.364;2023-04-28T12:51:22;94753.69;;;16.10;26.15
33191;BME280;19554;42.652;23.364;2023-04-28T12:53:48;94737.41;;;15.80;26.74
33191;BME280;19554;42.652;23.364;2023-04-28T12:56:13;94747.38;;;16.06;26.78
33191;BME280;19554;42.652;23.364;2023-04-28T12:58:39;94720.09;;;16.16;26.21
33191;BME280;19554;42.652;23.364;2023-04-28T13:01:05;94735.00;;;16.22;26.16
33191;BME280;19554;42.652;23.364;2023-04-28T13:03:30;94741.94;;;16.23;25.65
33191;BME280;19554;42.652;23.364;2023-04-28T13:05:56;94740.03;;;16.24;25.83
33191;BME280;19554;42.652;23.364;2023-04-28T13:08:21;94736.59;;;16.06;25.79
33191;BME280;19554;42.652;23.364;2023-04-28T13:10:46;94734.38;;;16.08;26.06
33191;BME280;19554;42.652;23.364;2023-04-28T13:13:12;94739.47;;;16.01;26.26
33191;BME280;19554;42.652;23.364;2023-04-28T13:15:37;94724.88;;;16.02;26.00
33191;BME280;19554;42.652;23.364;2023-04-28T13:18:03;94735.31;;;16.12;26.29
33191;BME280;19554;42.652;23.364;2023-04-28T13:20:28;94734.06;;;16.18;25.64